KHSA

Details ICAO KHSA
Name STENNIS INTL
Region United States
Timezone America/Chicago (UTC-5.0)
Plans Departing 28
Arriving 16
Stats Elevation 22 ft / 7 m (AMSL)
Location 30.367808° -89.454610°
Runways 1
Magnetic Variation 1.342° W
Sunrise 2018-05-22 11:01:18 UTC / 2018-05-22 06:01:18 Local
Sunset 2018-05-23 00:50:34 UTC / 2018-05-22 19:50:34 Local
Advertisement - Login to hide

Runways

ID Width Length Bearing (true) Bearing (mag) Surface Threshold Offset Overrun Length
18 150 ft / 46 m 8,527 ft / 2,599 m 180.17° 181.51° Asphalt 0 ft / 0 m 0 ft / 0 m
36 150 ft / 46 m 8,527 ft / 2,599 m 0.17° 1.51° Asphalt 0 ft / 0 m 200 ft / 61 m

Approach Navaids

Runway Type Ident Frequency Range Bearing (true) Bearing (mag) Slope Elevation
18 Localiser IHSA 110.35 MHz 18 nm / 33 km 180.18° 181.52° - 9 ft / 3 m (AMSL)
18 Glidescope IHSA 110.35 MHz 10 nm / 19 km 180.17° 181.51° 3.00° 18 ft / 5 m (AMSL)

Map

Weather


0- 5 10 15 20 25 30 35+ Temperature / ° C

Clouds and Precipitation
Forecast for 2018-05-22 12:00 UTC. Updated 3 hours ago

Ground ~20,000 ft ~40,000 ft Winds

METAR

KHSA 221350Z 00000KT 7SM SCT015 26/23 A3005

TAF

Not found

Frequencies

Recorded 118.37 MHz AWOS 3
Clearance 124.32 MHz CLNC DEL
Tower 127.15 MHz TWR
Approach 127.50 MHz GULFPORT APP/DEP
Unicom 123.00 MHz CTAF/UNICOM
Ground 121.72 MHz GND
Approach 124.60 MHz GULFPORT APP/DEP
Warning: Do not use this data for real-world aviation or navigation. No guarantee of current accuracy is given.